Time;durP1;ratioP1;P1;durP2;ratioP2;P2;SDS_P1;SDS_P2;PMS_P1;PMS_P2;Temp;Humidity;BMP_temperature;BMP_pressure;BME280_temperature;BME280_humidity;BME280_pressure;Samples;Min_cycle;Max_cycle;Signal;HPM_P1;HPM_P2
2022/07/06 00:02:11;;;;;;;;;;;17.40;82.20;;;;;;5007679;28;19926;-87
2022/07/06 00:04:41;;;;;;;;;;;17.30;81.80;;;;;;5015981;28;19930;-88
2022/07/06 00:07:09;;;;;;;;;;;17.30;82.80;;;;;;4991352;28;19925;-87
2022/07/06 00:09:38;;;;;;;;;;;17.20;82.50;;;;;;4980085;28;19929;-86
2022/07/06 00:12:06;;;;;;;;;;;17.10;83.30;;;;;;5021291;28;19932;-87
2022/07/06 00:14:35;;;;;;;;;;;17.10;82.90;;;;;;5022329;28;19925;-87
2022/07/06 00:17:06;;;;;;;;;;;17.10;83.50;;;;;;4991057;28;19936;-87
2022/07/06 00:19:36;;;;;;;;;;;17.20;83.10;;;;;;5007059;28;19933;-86
2022/07/06 00:22:09;;;;;;;;;;;17.00;83.80;;;;;;5004676;28;19925;-87
2022/07/06 00:24:37;;;;;;;;;;;17.00;82.90;;;;;;5010561;28;19925;-87
2022/07/06 00:27:06;;;;;;;;;;;17.00;83.60;;;;;;4997521;28;19932;-88
2022/07/06 00:29:35;;;;;;;;;;;16.90;83.30;;;;;;5002444;28;19937;-87
2022/07/06 00:32:03;;;;;;;;;;;16.90;83.00;;;;;;4997650;28;19929;-89
2022/07/06 00:34:32;;;;;;;;;;;16.80;84.30;;;;;;5001609;28;19936;-88
2022/07/06 00:37:00;;;;;;;;;;;16.50;83.20;;;;;;4998816;28;19910;-86
2022/07/06 00:39:29;;;;;;;;;;;16.80;84.60;;;;;;5014490;28;19929;-87
2022/07/06 00:41:57;;;;;;;;;;;16.70;83.70;;;;;;5007445;28;19925;-88
2022/07/06 00:44:28;;;;;;;;;;;17.20;85.20;;;;;;5010123;28;19933;-88
2022/07/06 00:46:56;;;;;;;;;;;16.70;85.20;;;;;;5003978;28;19926;-88
2022/07/06 00:52:11;;;;;;;;;;;16.60;84.90;;;;;;4989993;28;19930;-88
2022/07/06 00:54:41;;;;;;;;;;;16.50;85.70;;;;;;4962914;28;19930;-89
2022/07/06 00:57:09;;;;;;;;;;;16.50;84.50;;;;;;5005133;28;19929;-89
2022/07/06 00:59:37;;;;;;;;;;;17.10;85.10;;;;;;4995471;28;20412;-88
2022/07/06 01:02:06;;;;;;;;;;;17.40;86.20;;;;;;5013996;28;19932;-87
2022/07/06 01:04:35;;;;;;;;;;;16.40;85.40;;;;;;4992192;28;19925;-88
2022/07/06 01:07:04;;;;;;;;;;;16.30;86.00;;;;;;5021609;28;19948;-89
2022/07/06 01:09:31;;;;;;;;;;;16.30;85.80;;;;;;5000793;28;20221;-87
2022/07/06 01:12:02;;;;;;;;;;;16.30;85.70;;;;;;5003357;28;20506;-87
2022/07/06 01:14:30;;;;;;;;;;;16.20;86.60;;;;;;4972783;28;19934;-88
2022/07/06 01:16:58;;;;;;;;;;;16.20;86.10;;;;;;4997171;28;19936;-87
2022/07/06 01:19:25;;;;;;;;;;;16.20;86.00;;;;;;4991193;28;19929;-87
2022/07/06 01:21:53;;;;;;;;;;;16.20;85.80;;;;;;4993253;28;19933;-87
2022/07/06 01:24:21;;;;;;;;;;;16.10;86.50;;;;;;5009296;28;19929;-89
2022/07/06 01:26:49;;;;;;;;;;;16.10;86.60;;;;;;5028785;28;19940;-88
2022/07/06 01:29:17;;;;;;;;;;;14.80;85.30;;;;;;5006400;28;19935;-86
2022/07/06 01:31:50;;;;;;;;;;;16.00;86.50;;;;;;5004753;28;19927;-88
2022/07/06 01:34:19;;;;;;;;;;;16.10;86.60;;;;;;5004680;28;19933;-87
2022/07/06 01:36:46;;;;;;;;;;;15.90;86.30;;;;;;5001145;28;20274;-87
2022/07/06 01:39:14;;;;;;;;;;;15.90;86.50;;;;;;4984034;28;19926;-87
2022/07/06 01:41:42;;;;;;;;;;;15.90;86.90;;;;;;5000638;28;19925;-87
2022/07/06 01:44:13;;;;;;;;;;;15.80;86.90;;;;;;5013791;28;19926;-86
2022/07/06 01:46:41;;;;;;;;;;;15.80;86.80;;;;;;4974562;28;19932;-86
2022/07/06 01:49:09;;;;;;;;;;;15.80;87.20;;;;;;4998396;28;19929;-87
2022/07/06 01:51:43;;;;;;;;;;;14.60;86.70;;;;;;4966783;28;19926;-86
2022/07/06 01:54:11;;;;;;;;;;;15.70;87.80;;;;;;5014754;28;19926;-87
2022/07/06 01:56:40;;;;;;;;;;;15.70;87.90;;;;;;4965167;28;19933;-86
2022/07/06 01:59:08;;;;;;;;;;;15.60;87.50;;;;;;4995087;28;19926;-86
2022/07/06 02:01:37;;;;;;;;;;;15.60;87.40;;;;;;4974519;28;19932;-87
2022/07/06 02:04:05;;;;;;;;;;;15.60;88.00;;;;;;5024234;28;19930;-85
2022/07/06 02:06:34;;;;;;;;;;;14.60;87.50;;;;;;4984340;28;19936;-86
2022/07/06 02:09:02;;;;;;;;;;;15.50;87.90;;;;;;5014977;28;19929;-86
2022/07/06 02:11:30;;;;;;;;;;;15.50;88.20;;;;;;4997060;28;19929;-86
2022/07/06 02:13:58;;;;;;;;;;;15.50;88.90;;;;;;4986434;28;19936;-87
2022/07/06 02:16:25;;;;;;;;;;;15.40;87.80;;;;;;4971645;28;19937;-86
2022/07/06 02:18:53;;;;;;;;;;;15.40;88.60;;;;;;4991421;28;19926;-87
2022/07/06 02:21:23;;;;;;;;;;;15.30;88.90;;;;;;4985869;28;20298;-88
2022/07/06 02:23:51;;;;;;;;;;;15.40;88.70;;;;;;5000014;28;19926;-88
2022/07/06 02:26:18;;;;;;;;;;;15.30;88.90;;;;;;5004426;28;19926;-87
2022/07/06 02:28:47;;;;;;;;;;;15.20;88.50;;;;;;4985967;28;19960;-87
2022/07/06 02:31:15;;;;;;;;;;;15.30;88.90;;;;;;5017102;28;19960;-86
2022/07/06 02:33:46;;;;;;;;;;;15.90;89.20;;;;;;5013022;28;19926;-86
2022/07/06 02:36:14;;;;;;;;;;;15.20;89.30;;;;;;4990131;28;20289;-86
2022/07/06 02:38:43;;;;;;;;;;;15.20;89.20;;;;;;4964451;28;19925;-86
2022/07/06 02:41:11;;;;;;;;;;;15.20;89.80;;;;;;4997423;28;19925;-86
2022/07/06 02:43:39;;;;;;;;;;;15.20;89.30;;;;;;4995152;28;20404;-86
2022/07/06 02:46:07;;;;;;;;;;;15.10;89.50;;;;;;5023787;28;19933;-88
2022/07/06 02:48:35;;;;;;;;;;;15.10;90.00;;;;;;4994311;28;19933;-86
2022/07/06 02:51:03;;;;;;;;;;;15.10;90.10;;;;;;5000238;28;19932;-87
2022/07/06 02:53:31;;;;;;;;;;;15.10;90.20;;;;;;4983732;28;20534;-87
2022/07/06 02:55:58;;;;;;;;;;;15.10;90.20;;;;;;4971725;28;19932;-86
2022/07/06 02:58:26;;;;;;;;;;;15.10;90.20;;;;;;4984065;28;19925;-86
2022/07/06 03:00:54;;;;;;;;;;;15.10;90.00;;;;;;5006403;28;19925;-87
2022/07/06 03:03:22;;;;;;;;;;;15.10;90.00;;;;;;4987603;28;19925;-88
2022/07/06 03:05:50;;;;;;;;;;;15.10;90.00;;;;;;4986068;28;19926;-88
2022/07/06 03:08:19;;;;;;;;;;;15.10;90.10;;;;;;5008521;28;19926;-87
2022/07/06 03:10:48;;;;;;;;;;;15.10;90.10;;;;;;5013680;28;19933;-87
2022/07/06 03:13:17;;;;;;;;;;;15.10;90.50;;;;;;5010101;28;19925;-87
2022/07/06 03:15:45;;;;;;;;;;;15.10;90.20;;;;;;5008529;28;19935;-86
2022/07/06 03:18:14;;;;;;;;;;;15.00;90.20;;;;;;5021494;28;19948;-86
2022/07/06 03:20:43;;;;;;;;;;;15.10;90.30;;;;;;5009495;28;19925;-88
2022/07/06 03:23:13;;;;;;;;;;;15.10;90.50;;;;;;5000793;28;20150;-87
2022/07/06 03:25:41;;;;;;;;;;;15.00;90.50;;;;;;5027449;28;19929;-86
2022/07/06 03:28:10;;;;;;;;;;;15.00;90.50;;;;;;4998304;28;19930;-87
2022/07/06 03:30:38;;;;;;;;;;;15.00;90.60;;;;;;4986933;28;19926;-87
2022/07/06 03:33:05;;;;;;;;;;;15.00;90.70;;;;;;5001474;28;19929;-86
2022/07/06 03:35:33;;;;;;;;;;;15.00;90.70;;;;;;5034529;28;19929;-86
2022/07/06 03:38:03;;;;;;;;;;;15.00;90.60;;;;;;5009747;28;19940;-88
2022/07/06 03:40:33;;;;;;;;;;;15.00;90.70;;;;;;4977539;28;20002;-87
2022/07/06 03:43:01;;;;;;;;;;;14.90;90.50;;;;;;4987161;28;19926;-87
2022/07/06 03:45:33;;;;;;;;;;;14.90;90.90;;;;;;5008371;28;19936;-87
2022/07/06 03:48:04;;;;;;;;;;;14.90;90.70;;;;;;4994582;28;19926;-86
2022/07/06 03:50:41;;;;;;;;;;;15.00;90.80;;;;;;5000882;28;19936;-87
2022/07/06 03:53:14;;;;;;;;;;;15.80;91.20;;;;;;5009448;28;19925;-87
2022/07/06 03:55:42;;;;;;;;;;;14.90;90.90;;;;;;4988914;28;19936;-87
2022/07/06 03:58:13;;;;;;;;;;;14.80;90.80;;;;;;5007315;28;19926;-87
2022/07/06 04:00:41;;;;;;;;;;;14.80;90.90;;;;;;4976744;28;20087;-86
2022/07/06 04:03:16;;;;;;;;;;;14.80;90.80;;;;;;5023346;28;19930;-87
2022/07/06 04:05:48;;;;;;;;;;;14.80;91.10;;;;;;5028801;28;19925;-87
2022/07/06 04:08:16;;;;;;;;;;;14.80;91.30;;;;;;5000401;28;19956;-86
2022/07/06 04:10:52;;;;;;;;;;;14.70;91.20;;;;;;4988738;28;19925;-87
2022/07/06 04:13:21;;;;;;;;;;;14.70;91.30;;;;;;4999216;28;19926;-85
2022/07/06 04:15:49;;;;;;;;;;;14.80;91.50;;;;;;4997905;28;19926;-87
2022/07/06 04:18:18;;;;;;;;;;;14.80;91.40;;;;;;4976147;28;19936;-88
2022/07/06 04:20:53;;;;;;;;;;;14.80;91.60;;;;;;5010476;28;20269;-87
2022/07/06 04:23:22;;;;;;;;;;;14.80;91.60;;;;;;5008658;28;19966;-88
2022/07/06 04:25:50;;;;;;;;;;;14.90;91.40;;;;;;5010435;28;19925;-86
2022/07/06 04:28:19;;;;;;;;;;;14.90;91.70;;;;;;5006577;28;20273;-87
2022/07/06 04:30:47;;;;;;;;;;;14.90;91.40;;;;;;4986446;28;20009;-87
2022/07/06 04:33:18;;;;;;;;;;;14.90;91.30;;;;;;5017942;28;20308;-86
2022/07/06 04:35:48;;;;;;;;;;;15.00;91.50;;;;;;4989820;28;19926;-87
2022/07/06 04:38:19;;;;;;;;;;;15.10;91.30;;;;;;5004754;28;19925;-87
2022/07/06 04:40:49;;;;;;;;;;;15.20;91.30;;;;;;5006374;28;19929;-86
2022/07/06 04:43:18;;;;;;;;;;;15.20;91.40;;;;;;4990562;28;19933;-88
2022/07/06 04:45:47;;;;;;;;;;;15.30;91.20;;;;;;4986845;28;19929;-86
2022/07/06 04:48:15;;;;;;;;;;;15.40;91.40;;;;;;4967071;28;19930;-86
2022/07/06 04:50:43;;;;;;;;;;;15.50;91.20;;;;;;4998345;28;19922;-88
2022/07/06 04:53:17;;;;;;;;;;;15.60;91.00;;;;;;5006351;28;19936;-87
2022/07/06 04:55:44;;;;;;;;;;;15.60;90.90;;;;;;5010756;28;19929;-87
2022/07/06 04:58:13;;;;;;;;;;;15.70;90.90;;;;;;5006178;28;19930;-85
2022/07/06 05:00:42;;;;;;;;;;;15.70;90.70;;;;;;5019708;28;19936;-87
2022/07/06 05:03:10;;;;;;;;;;;15.80;91.10;;;;;;5006781;28;19930;-86
2022/07/06 05:05:41;;;;;;;;;;;16.00;90.80;;;;;;5006521;28;19926;-86
2022/07/06 05:08:10;;;;;;;;;;;16.00;90.70;;;;;;5004526;28;19925;-88
2022/07/06 05:10:40;;;;;;;;;;;16.00;90.60;;;;;;4993269;28;19933;-86
2022/07/06 05:13:08;;;;;;;;;;;16.10;90.50;;;;;;5003663;28;19940;-86
2022/07/06 05:15:39;;;;;;;;;;;16.20;90.50;;;;;;4990907;28;19934;-86
2022/07/06 05:18:08;;;;;;;;;;;16.20;90.80;;;;;;4994684;28;20312;-86
2022/07/06 05:20:41;;;;;;;;;;;15.50;90.50;;;;;;5006552;28;19936;-85
2022/07/06 05:23:11;;;;;;;;;;;16.20;90.50;;;;;;4995999;28;19925;-87
2022/07/06 05:25:43;;;;;;;;;;;16.00;90.50;;;;;;4977721;28;19930;-86
2022/07/06 05:28:11;;;;;;;;;;;16.20;90.50;;;;;;5000895;28;19933;-87
2022/07/06 05:30:41;;;;;;;;;;;16.20;90.60;;;;;;4975858;28;19925;-86
2022/07/06 05:33:10;;;;;;;;;;;16.30;90.50;;;;;;5005233;28;19940;-85
2022/07/06 05:35:37;;;;;;;;;;;16.30;90.50;;;;;;4993752;28;19926;-86
2022/07/06 05:38:23;;;;;;;;;;;16.30;90.50;;;;;;5000122;28;20425;-87
2022/07/06 05:40:52;;;;;;;;;;;16.40;90.50;;;;;;4997069;28;19936;-86
2022/07/06 05:43:19;;;;;;;;;;;16.40;90.50;;;;;;4991414;28;20487;-86
2022/07/06 05:45:54;;;;;;;;;;;16.50;90.50;;;;;;4991454;28;19932;-86
2022/07/06 05:51:15;;;;;;;;;;;16.60;90.40;;;;;;4983130;28;19926;-88
2022/07/06 05:53:44;;;;;;;;;;;16.50;90.20;;;;;;4981834;28;19949;-86
2022/07/06 05:56:12;;;;;;;;;;;17.80;90.50;;;;;;5002914;28;19945;-86
2022/07/06 05:58:41;;;;;;;;;;;16.80;90.30;;;;;;5000625;28;20213;-87
2022/07/06 06:01:08;;;;;;;;;;;16.80;90.30;;;;;;4990070;28;19925;-87
2022/07/06 06:03:38;;;;;;;;;;;16.90;90.20;;;;;;5010433;28;19932;-86
2022/07/06 06:06:08;;;;;;;;;;;17.00;90.30;;;;;;5007572;28;19932;-86
2022/07/06 06:08:36;;;;;;;;;;;16.90;90.30;;;;;;4996427;28;19925;-86
2022/07/06 06:11:04;;;;;;;;;;;17.10;90.20;;;;;;4969382;28;20676;-86
2022/07/06 06:13:39;;;;;;;;;;;16.90;90.10;;;;;;4999756;28;19933;-85
2022/07/06 06:16:06;;;;;;;;;;;17.00;90.40;;;;;;4985735;28;19934;-87
2022/07/06 06:18:34;;;;;;;;;;;17.10;90.10;;;;;;4997213;28;20459;-88
2022/07/06 06:21:08;;;;;;;;;;;17.20;90.30;;;;;;4989256;28;19944;-86
2022/07/06 06:23:36;;;;;;;;;;;17.30;90.10;;;;;;4952937;28;20432;-86
2022/07/06 06:26:04;;;;;;;;;;;17.30;90.10;;;;;;5007618;28;20026;-86
2022/07/06 06:28:36;;;;;;;;;;;17.30;90.00;;;;;;5015605;28;19925;-86
2022/07/06 06:31:05;;;;;;;;;;;17.40;89.90;;;;;;4997545;28;19989;-86
2022/07/06 06:33:34;;;;;;;;;;;17.40;90.00;;;;;;4991268;28;19929;-86
2022/07/06 06:36:02;;;;;;;;;;;17.30;89.90;;;;;;4994187;28;19925;-85
2022/07/06 06:38:31;;;;;;;;;;;17.30;90.00;;;;;;5024826;28;19929;-86
2022/07/06 06:41:01;;;;;;;;;;;17.30;90.10;;;;;;4996127;28;19933;-86
2022/07/06 06:43:30;;;;;;;;;;;17.40;90.10;;;;;;4972198;28;19926;-86
2022/07/06 06:46:21;;;;;;;;;;;17.40;90.10;;;;;;5006123;28;19925;-85
2022/07/06 06:48:52;;;;;;;;;;;17.60;90.00;;;;;;5016456;28;19930;-86
2022/07/06 06:51:20;;;;;;;;;;;17.60;89.70;;;;;;4653200;28;9999992;-87
2022/07/06 06:53:48;;;;;;;;;;;17.60;89.60;;;;;;5006798;28;19929;-88
2022/07/06 06:56:17;;;;;;;;;;;17.70;89.70;;;;;;4993987;28;19932;-89
2022/07/06 06:58:45;;;;;;;;;;;17.70;90.00;;;;;;4981094;28;19933;-88
2022/07/06 07:01:33;;;;;;;;;;;17.70;90.00;;;;;;4971547;28;19929;-86
2022/07/06 07:04:00;;;;;;;;;;;17.80;90.00;;;;;;4974478;28;19929;-88
2022/07/06 07:06:29;;;;;;;;;;;17.80;90.00;;;;;;4980980;28;19926;-87
2022/07/06 07:09:00;;;;;;;;;;;17.90;90.00;;;;;;5007732;28;19934;-87
2022/07/06 07:11:30;;;;;;;;;;;17.90;90.10;;;;;;4984707;28;19929;-87
2022/07/06 07:14:02;;;;;;;;;;;18.00;90.00;;;;;;4956682;28;19925;-87
2022/07/06 07:16:32;;;;;;;;;;;17.80;90.00;;;;;;4988236;28;19990;-87
2022/07/06 07:19:09;;;;;;;;;;;17.20;89.30;;;;;;5033582;28;19930;-88
2022/07/06 07:21:42;;;;;;;;;;;18.00;89.90;;;;;;5028054;28;19926;-86
2022/07/06 07:24:14;;;;;;;;;;;18.20;90.10;;;;;;4987689;28;19925;-88
2022/07/06 07:26:56;;;;;;;;;;;19.60;90.10;;;;;;4988246;28;19925;-88
2022/07/06 07:29:24;;;;;;;;;;;18.30;89.70;;;;;;4985867;28;19929;-87
2022/07/06 07:31:51;;;;;;;;;;;18.40;89.10;;;;;;4958400;28;19933;-89
2022/07/06 07:34:19;;;;;;;;;;;18.50;89.00;;;;;;5005044;28;19926;-88
2022/07/06 07:36:47;;;;;;;;;;;18.50;88.70;;;;;;4994292;28;19926;-88
2022/07/06 07:39:15;;;;;;;;;;;18.60;89.00;;;;;;4973196;28;19940;-88
2022/07/06 07:41:46;;;;;;;;;;;18.60;88.80;;;;;;5000766;28;19929;-86
2022/07/06 07:44:16;;;;;;;;;;;18.60;89.20;;;;;;4996089;28;19932;-89
2022/07/06 07:46:47;;;;;;;;;;;18.50;88.90;;;;;;4986482;28;19930;-86
2022/07/06 07:49:16;;;;;;;;;;;18.50;89.40;;;;;;4990621;28;19936;-89
2022/07/06 07:51:50;;;;;;;;;;;18.60;89.50;;;;;;4988295;28;19934;-89
2022/07/06 07:54:19;;;;;;;;;;;18.80;89.50;;;;;;4992649;28;19935;-89
2022/07/06 07:56:51;;;;;;;;;;;18.80;89.50;;;;;;4995231;28;19930;-90
2022/07/06 07:59:26;;;;;;;;;;;18.90;89.60;;;;;;4993970;28;19932;-89
2022/07/06 08:01:58;;;;;;;;;;;19.00;89.40;;;;;;4988092;28;19933;-89
2022/07/06 08:04:26;;;;;;;;;;;18.90;89.20;;;;;;4986755;28;19933;-89
2022/07/06 08:06:56;;;;;;;;;;;19.10;89.60;;;;;;5013841;28;19932;-89
2022/07/06 08:09:29;;;;;;;;;;;19.20;90.00;;;;;;4987564;28;20269;-90
2022/07/06 08:11:59;;;;;;;;;;;19.20;89.40;;;;;;4970441;28;19937;-89
2022/07/06 08:14:27;;;;;;;;;;;19.40;89.70;;;;;;5008082;28;19940;-91
2022/07/06 08:16:55;;;;;;;;;;;19.30;89.70;;;;;;4988250;28;19929;-89
2022/07/06 08:19:23;;;;;;;;;;;19.30;89.40;;;;;;5000622;28;19922;-90
2022/07/06 08:21:52;;;;;;;;;;;19.30;89.60;;;;;;5007716;28;19925;-90
2022/07/06 08:24:23;;;;;;;;;;;19.40;89.60;;;;;;4973007;28;19925;-88
2022/07/06 08:26:58;;;;;;;;;;;19.50;90.30;;;;;;4992532;28;19932;-88
2022/07/06 08:29:25;;;;;;;;;;;19.50;89.60;;;;;;4983218;28;20044;-88
2022/07/06 08:31:55;;;;;;;;;;;19.50;90.10;;;;;;4982265;28;19926;-88
2022/07/06 08:34:37;;;;;;;;;;;19.70;90.10;;;;;;4994589;28;19925;-87
2022/07/06 08:37:05;;;;;;;;;;;19.20;90.00;;;;;;5004013;28;19936;-88
2022/07/06 08:39:32;;;;;;;;;;;20.00;90.10;;;;;;5011319;28;19933;-87
2022/07/06 08:42:00;;;;;;;;;;;20.10;90.00;;;;;;4981265;28;19933;-89
2022/07/06 08:44:29;;;;;;;;;;;20.70;90.00;;;;;;4989892;28;19957;-87
2022/07/06 08:46:58;;;;;;;;;;;20.20;89.70;;;;;;4991509;28;19930;-88
2022/07/06 08:49:27;;;;;;;;;;;20.20;89.80;;;;;;5019235;28;19924;-87
2022/07/06 08:51:55;;;;;;;;;;;20.30;90.00;;;;;;4982385;28;19949;-86
2022/07/06 08:54:24;;;;;;;;;;;20.30;90.00;;;;;;4997405;28;19926;-89
2022/07/06 08:56:55;;;;;;;;;;;20.50;90.20;;;;;;5003420;28;19929;-87
2022/07/06 08:59:25;;;;;;;;;;;20.50;90.30;;;;;;5000638;28;19930;-87
2022/07/06 09:01:53;;;;;;;;;;;20.50;90.30;;;;;;4982978;28;19936;-88
2022/07/06 09:04:22;;;;;;;;;;;20.50;90.30;;;;;;4984051;28;19925;-88
2022/07/06 09:06:52;;;;;;;;;;;20.60;90.40;;;;;;5006017;28;20442;-88
2022/07/06 09:09:23;;;;;;;;;;;21.20;90.50;;;;;;4993584;28;19926;-87
2022/07/06 09:11:52;;;;;;;;;;;20.40;90.30;;;;;;4985098;28;19926;-90
2022/07/06 09:14:21;;;;;;;;;;;20.80;90.40;;;;;;4984911;28;19930;-85
2022/07/06 09:17:11;;;;;;;;;;;21.00;90.50;;;;;;5012612;28;20309;-89
2022/07/06 09:19:46;;;;;;;;;;;21.10;90.20;;;;;;4992922;28;19936;-89
2022/07/06 09:22:25;;;;;;;;;;;21.30;90.20;;;;;;4992445;28;20236;-87
2022/07/06 09:25:18;;;;;;;;;;;21.50;90.10;;;;;;4972637;28;19928;-89
2022/07/06 09:27:49;;;;;;;;;;;21.40;90.00;;;;;;4988923;28;20328;-89
2022/07/06 09:30:40;;;;;;;;;;;21.40;90.10;;;;;;5009473;28;19925;-88
2022/07/06 09:33:20;;;;;;;;;;;21.30;90.20;;;;;;5026468;28;19929;-88
2022/07/06 09:36:05;;;;;;;;;;;21.40;90.30;;;;;;5005732;28;19926;-87
2022/07/06 09:38:38;;;;;;;;;;;21.40;90.40;;;;;;5008854;28;19930;-89
2022/07/06 09:41:11;;;;;;;;;;;21.50;90.50;;;;;;5000279;28;19941;-90
2022/07/06 09:43:48;;;;;;;;;;;21.40;90.30;;;;;;4987467;28;19926;-88
2022/07/06 09:46:28;;;;;;;;;;;21.40;90.40;;;;;;4993469;28;19929;-89
2022/07/06 09:49:40;;;;;;;;;;;21.50;90.50;;;;;;5002067;28;19944;-90
2022/07/06 09:52:23;;;;;;;;;;;21.60;90.20;;;;;;5004655;28;19940;-90
2022/07/06 09:54:59;;;;;;;;;;;21.90;90.50;;;;;;4981755;28;19922;-91
2022/07/06 09:57:59;;;;;;;;;;;21.70;89.70;;;;;;5006277;28;19933;-90
2022/07/06 10:00:35;;;;;;;;;;;21.70;90.10;;;;;;5005722;28;19936;-89
2022/07/06 10:03:28;;;;;;;;;;;21.70;90.00;;;;;;5003541;28;19944;-89
2022/07/06 10:05:57;;;;;;;;;;;23.40;90.30;;;;;;5003484;28;19939;-89
2022/07/06 10:08:32;;;;;;;;;;;21.90;90.00;;;;;;5002947;28;19931;-88
2022/07/06 10:11:01;;;;;;;;;;;22.00;89.60;;;;;;5019531;28;20115;-89
2022/07/06 10:13:37;;;;;;;;;;;22.20;89.50;;;;;;4990356;28;19926;-89
2022/07/06 10:16:25;;;;;;;;;;;22.10;89.10;;;;;;5013294;28;19948;-88
2022/07/06 10:18:59;;;;;;;;;;;22.20;89.20;;;;;;5000994;28;19932;-87
2022/07/06 10:21:47;;;;;;;;;;;22.30;88.70;;;;;;4991070;28;19926;-87
2022/07/06 10:24:21;;;;;;;;;;;23.00;88.80;;;;;;4995313;28;19925;-87
2022/07/06 10:26:51;;;;;;;;;;;22.60;88.20;;;;;;4979018;28;20586;-89
2022/07/06 10:29:24;;;;;;;;;;;22.60;87.70;;;;;;5019605;28;19920;-90
2022/07/06 10:32:07;;;;;;;;;;;21.50;87.40;;;;;;5017215;28;19935;-90
2022/07/06 10:34:53;;;;;;;;;;;22.80;87.80;;;;;;5027531;28;19935;-90
2022/07/06 10:37:43;;;;;;;;;;;22.80;87.40;;;;;;5017653;28;19913;-90
2022/07/06 10:44:12;;;;;;;;;;;22.90;87.20;;;;;;5006949;28;19926;-91
2022/07/06 10:46:58;;;;;;;;;;;23.00;86.60;;;;;;4995841;28;19926;-90
2022/07/06 10:49:47;;;;;;;;;;;23.10;86.40;;;;;;4999785;28;19925;-90
2022/07/06 10:52:47;;;;;;;;;;;23.10;86.50;;;;;;5022092;28;19924;-91
2022/07/06 10:55:39;;;;;;;;;;;23.30;86.90;;;;;;4984531;28;19930;-92
2022/07/06 10:58:49;;;;;;;;;;;23.30;86.30;;;;;;5014314;28;19936;-91
2022/07/06 11:02:02;;;;;;;;;;;23.30;85.80;;;;;;5025574;28;19914;-92
2022/07/06 11:04:55;;;;;;;;;;;23.20;86.10;;;;;;4993859;28;19930;-91
2022/07/06 11:07:52;;;;;;;;;;;23.30;85.90;;;;;;4994778;28;19909;-91
2022/07/06 11:10:52;;;;;;;;;;;23.40;85.70;;;;;;5003675;28;19947;-91
2022/07/06 11:13:55;;;;;;;;;;;23.60;85.40;;;;;;4992950;28;19926;-88
2022/07/06 11:16:36;;;;;;;;;;;23.80;85.00;;;;;;5008733;28;19931;-90
2022/07/06 11:19:28;;;;;;;;;;;23.80;84.30;;;;;;5008796;28;19930;-88
2022/07/06 11:22:25;;;;;;;;;;;23.90;84.20;;;;;;4979503;28;19910;-89
2022/07/06 11:25:12;;;;;;;;;;;24.10;83.80;;;;;;5005831;28;19935;-92
2022/07/06 11:28:18;;;;;;;;;;;23.10;83.50;;;;;;5020290;28;20426;-92
2022/07/06 11:31:38;;;;;;;;;;;24.20;84.00;;;;;;4998475;28;19909;-92
2022/07/06 11:34:41;;;;;;;;;;;24.40;83.30;;;;;;5026440;28;19936;-91
2022/07/06 11:37:17;;;;;;;;;;;24.50;83.10;;;;;;5022129;28;19925;-91
2022/07/06 11:39:48;;;;;;;;;;;25.80;83.80;;;;;;5012041;28;19926;-89
2022/07/06 11:42:31;;;;;;;;;;;24.40;83.30;;;;;;5011529;28;19914;-91
2022/07/06 11:45:29;;;;;;;;;;;24.40;83.10;;;;;;5006233;28;19926;-90
2022/07/06 11:48:11;;;;;;;;;;;24.50;83.30;;;;;;5002662;28;19940;-90
2022/07/06 11:50:43;;;;;;;;;;;24.60;83.60;;;;;;4994870;28;20488;-90
2022/07/06 11:53:21;;;;;;;;;;;24.40;83.40;;;;;;5005119;28;19925;-89
2022/07/06 11:56:05;;;;;;;;;;;24.40;82.80;;;;;;4994326;28;19932;-89
2022/07/06 11:58:43;;;;;;;;;;;24.50;82.80;;;;;;5022238;28;19925;-90
2022/07/06 12:01:35;;;;;;;;;;;24.30;82.50;;;;;;5016725;28;19936;-89
2022/07/06 12:04:14;;;;;;;;;;;24.60;83.20;;;;;;4990011;28;20292;-89
2022/07/06 12:07:26;;;;;;;;;;;24.60;82.10;;;;;;5008227;28;19929;-90
2022/07/06 12:10:00;;;;;;;;;;;24.50;81.90;;;;;;5028608;28;20292;-89
2022/07/06 12:12:37;;;;;;;;;;;23.90;82.10;;;;;;4989193;28;19926;-88
2022/07/06 12:15:12;;;;;;;;;;;24.40;82.50;;;;;;5005652;28;19935;-90
2022/07/06 12:17:49;;;;;;;;;;;24.30;82.50;;;;;;4972718;28;19939;-90
2022/07/06 12:20:38;;;;;;;;;;;24.30;82.30;;;;;;5001096;28;19920;-91
2022/07/06 12:23:22;;;;;;;;;;;24.30;82.30;;;;;;5003619;28;19936;-91
2022/07/06 12:26:24;;;;;;;;;;;24.20;82.70;;;;;;5051651;23;20235;-85
2022/07/06 12:29:09;;;;;;;;;;;24.30;83.80;;;;;;5053200;28;19928;-84
2022/07/06 12:31:39;;;;;;;;;;;24.10;82.70;;;;;;5066834;28;19924;-84
2022/07/06 12:34:20;;;;;;;;;;;24.00;84.30;;;;;;5052297;28;19925;-85
2022/07/06 12:36:50;;;;;;;;;;;24.00;82.60;;;;;;5061848;28;20511;-84
2022/07/06 12:39:19;;;;;;;;;;;23.90;82.50;;;;;;5058677;28;19934;-84
2022/07/06 12:41:56;;;;;;;;;;;23.90;82.80;;;;;;5060799;28;19935;-85
2022/07/06 12:44:25;;;;;;;;;;;23.90;82.20;;;;;;5051964;28;20301;-84
2022/07/06 12:47:05;;;;;;;;;;;23.90;83.10;;;;;;5065321;28;19935;-83
2022/07/06 12:49:49;;;;;;;;;;;24.10;81.60;;;;;;5063005;28;19924;-84
2022/07/06 12:52:17;;;;;;;;;;;24.20;81.60;;;;;;5052566;28;19936;-84
2022/07/06 12:54:49;;;;;;;;;;;24.40;81.40;;;;;;5044405;28;19929;-84
2022/07/06 12:57:25;;;;;;;;;;;24.00;81.60;;;;;;5063062;28;19925;-83
2022/07/06 12:59:54;;;;;;;;;;;23.70;80.90;;;;;;5049315;28;19925;-83
2022/07/06 13:02:25;;;;;;;;;;;24.60;81.80;;;;;;5048750;28;19929;-83
2022/07/06 13:05:14;;;;;;;;;;;24.60;81.20;;;;;;5053447;28;19925;-83
2022/07/06 13:07:44;;;;;;;;;;;24.80;81.10;;;;;;5025906;28;19924;-80
2022/07/06 13:10:13;;;;;;;;;;;24.80;80.70;;;;;;5047466;28;19946;-83
2022/07/06 13:12:41;;;;;;;;;;;25.00;80.80;;;;;;5032046;28;19932;-83
2022/07/06 13:15:10;;;;;;;;;;;25.10;80.90;;;;;;5049143;28;19928;-83
2022/07/06 13:17:40;;;;;;;;;;;25.20;80.40;;;;;;5042565;28;19931;-83
2022/07/06 13:20:09;;;;;;;;;;;25.20;80.20;;;;;;5053569;28;19925;-84
2022/07/06 13:22:39;;;;;;;;;;;25.30;79.70;;;;;;5030054;28;20389;-83
2022/07/06 13:25:07;;;;;;;;;;;25.30;79.10;;;;;;5013188;28;19932;-82
2022/07/06 13:27:35;;;;;;;;;;;25.40;79.10;;;;;;5060020;28;19940;-84
2022/07/06 13:30:04;;;;;;;;;;;25.40;79.40;;;;;;5044360;28;20319;-83
2022/07/06 13:32:40;;;;;;;;;;;25.10;78.50;;;;;;5045860;28;20566;-85
2022/07/06 13:35:09;;;;;;;;;;;24.50;78.60;;;;;;5042826;28;19925;-84
2022/07/06 13:37:37;;;;;;;;;;;25.10;79.30;;;;;;5016985;28;19926;-81
2022/07/06 13:40:06;;;;;;;;;;;25.00;79.50;;;;;;5047610;28;19925;-81
2022/07/06 13:42:34;;;;;;;;;;;24.90;79.60;;;;;;5050160;28;19935;-80
2022/07/06 13:45:03;;;;;;;;;;;24.80;80.00;;;;;;5031633;28;19935;-80
2022/07/06 13:47:32;;;;;;;;;;;24.70;79.80;;;;;;5032814;28;19929;-83
2022/07/06 13:50:01;;;;;;;;;;;24.70;80.00;;;;;;5037764;28;19925;-83
2022/07/06 13:52:33;;;;;;;;;;;25.10;81.50;;;;;;5041225;28;19932;-83
2022/07/06 13:55:05;;;;;;;;;;;24.40;80.40;;;;;;5046998;28;19924;-83
2022/07/06 13:57:35;;;;;;;;;;;24.10;80.70;;;;;;5056784;28;19925;-85
2022/07/06 14:00:09;;;;;;;;;;;24.10;81.00;;;;;;5044210;28;19932;-82
2022/07/06 14:02:38;;;;;;;;;;;23.90;81.40;;;;;;5030500;28;19932;-85
2022/07/06 14:05:06;;;;;;;;;;;23.90;81.40;;;;;;5046344;28;19935;-83
2022/07/06 14:07:36;;;;;;;;;;;24.10;81.10;;;;;;5053015;28;20557;-85
2022/07/06 14:10:08;;;;;;;;;;;24.20;81.50;;;;;;5045714;28;20011;-84
2022/07/06 14:12:39;;;;;;;;;;;24.80;81.40;;;;;;5050475;28;19944;-83
2022/07/06 14:15:11;;;;;;;;;;;24.80;81.40;;;;;;5029364;28;20216;-83
2022/07/06 14:17:43;;;;;;;;;;;24.40;80.80;;;;;;5023020;28;19932;-83
2022/07/06 14:20:11;;;;;;;;;;;24.50;80.70;;;;;;5028611;28;19939;-82
2022/07/06 14:22:42;;;;;;;;;;;24.10;81.00;;;;;;5037980;28;20833;-81
2022/07/06 14:25:12;;;;;;;;;;;24.50;80.40;;;;;;5014303;28;19944;-79
2022/07/06 14:27:40;;;;;;;;;;;24.60;80.70;;;;;;5026612;28;19935;-81
2022/07/06 14:30:09;;;;;;;;;;;25.00;81.00;;;;;;5025477;28;19932;-82
2022/07/06 14:32:38;;;;;;;;;;;24.40;79.70;;;;;;5043508;28;19924;-82
2022/07/06 14:35:08;;;;;;;;;;;25.00;80.50;;;;;;5043513;28;19931;-82
2022/07/06 14:37:38;;;;;;;;;;;24.90;79.90;;;;;;5025849;28;19925;-82
2022/07/06 14:40:07;;;;;;;;;;;24.80;80.40;;;;;;5042852;28;19929;-79
2022/07/06 14:42:34;;;;;;;;;;;23.40;79.60;;;;;;5042667;28;19929;-82
2022/07/06 14:45:03;;;;;;;;;;;24.80;81.00;;;;;;5064240;28;19929;-82
2022/07/06 14:47:35;;;;;;;;;;;24.20;80.60;;;;;;5047734;28;19924;-82
2022/07/06 14:50:12;;;;;;;;;;;24.80;80.40;;;;;;5046870;28;19928;-82
2022/07/06 14:52:42;;;;;;;;;;;26.50;81.40;;;;;;5043593;28;20165;-83
2022/07/06 14:55:12;;;;;;;;;;;24.70;80.20;;;;;;5059288;28;19944;-81
2022/07/06 14:57:43;;;;;;;;;;;24.60;80.70;;;;;;5042943;28;19933;-84
2022/07/06 15:00:15;;;;;;;;;;;24.60;80.80;;;;;;5061609;28;19933;-84